sensor_id;sensor_type;location;lat;lon;timestamp;P1;durP1;ratioP1;P2;durP2;ratioP2
68947;SDS011;55996;49.546;7.400;2022-07-29T00:02:20;4.63;;;2.40;;
68947;SDS011;55996;49.546;7.400;2022-07-29T00:04:46;2.43;;;2.10;;
68947;SDS011;55996;49.546;7.400;2022-07-29T00:07:11;3.87;;;2.10;;
68947;SDS011;55996;49.546;7.400;2022-07-29T00:09:37;3.07;;;2.30;;
68947;SDS011;55996;49.546;7.400;2022-07-29T00:12:02;3.37;;;2.50;;
68947;SDS011;55996;49.546;7.400;2022-07-29T00:14:28;2.77;;;2.40;;
68947;SDS011;55996;49.546;7.400;2022-07-29T00:16:54;3.50;;;2.60;;
68947;SDS011;55996;49.546;7.400;2022-07-29T00:19:19;3.27;;;2.50;;
68947;SDS011;55996;49.546;7.400;2022-07-29T00:21:45;4.73;;;2.33;;
68947;SDS011;55996;49.546;7.400;2022-07-29T00:24:10;4.30;;;2.27;;
68947;SDS011;55996;49.546;7.400;2022-07-29T00:26:36;2.77;;;2.47;;
68947;SDS011;55996;49.546;7.400;2022-07-29T00:29:02;3.10;;;2.40;;
68947;SDS011;55996;49.546;7.400;2022-07-29T00:31:29;7.57;;;2.53;;
68947;SDS011;55996;49.546;7.400;2022-07-29T00:33:54;2.93;;;2.60;;
68947;SDS011;55996;49.546;7.400;2022-07-29T00:36:20;4.40;;;2.60;;
68947;SDS011;55996;49.546;7.400;2022-07-29T00:38:50;2.93;;;2.30;;
68947;SDS011;55996;49.546;7.400;2022-07-29T00:41:16;3.40;;;2.47;;
68947;SDS011;55996;49.546;7.400;2022-07-29T00:43:43;3.37;;;2.53;;
68947;SDS011;55996;49.546;7.400;2022-07-29T00:46:09;4.17;;;2.70;;
68947;SDS011;55996;49.546;7.400;2022-07-29T00:48:34;4.17;;;2.50;;
68947;SDS011;55996;49.546;7.400;2022-07-29T00:51:01;4.10;;;2.50;;
68947;SDS011;55996;49.546;7.400;2022-07-29T00:53:29;4.80;;;2.77;;
68947;SDS011;55996;49.546;7.400;2022-07-29T00:55:55;3.40;;;2.70;;
68947;SDS011;55996;49.546;7.400;2022-07-29T00:58:21;4.97;;;2.53;;
68947;SDS011;55996;49.546;7.400;2022-07-29T01:00:47;3.80;;;2.37;;
68947;SDS011;55996;49.546;7.400;2022-07-29T01:03:12;5.43;;;2.60;;
68947;SDS011;55996;49.546;7.400;2022-07-29T01:05:38;4.53;;;2.73;;
68947;SDS011;55996;49.546;7.400;2022-07-29T01:08:06;2.60;;;2.40;;
68947;SDS011;55996;49.546;7.400;2022-07-29T01:10:31;2.93;;;2.67;;
68947;SDS011;55996;49.546;7.400;2022-07-29T01:12:58;5.60;;;2.80;;
68947;SDS011;55996;49.546;7.400;2022-07-29T01:15:25;4.03;;;2.87;;
68947;SDS011;55996;49.546;7.400;2022-07-29T01:18:05;4.93;;;2.53;;
68947;SDS011;55996;49.546;7.400;2022-07-29T01:29:29;2.80;;;2.47;;
68947;SDS011;55996;49.546;7.400;2022-07-29T01:32:14;3.40;;;2.63;;
68947;SDS011;55996;49.546;7.400;2022-07-29T01:34:54;2.87;;;2.50;;
68947;SDS011;55996;49.546;7.400;2022-07-29T01:40:27;2.90;;;2.60;;
68947;SDS011;55996;49.546;7.400;2022-07-29T01:42:59;3.37;;;2.57;;
68947;SDS011;55996;49.546;7.400;2022-07-29T01:48:24;2.70;;;2.50;;
68947;SDS011;55996;49.546;7.400;2022-07-29T01:51:58;3.60;;;2.53;;
68947;SDS011;55996;49.546;7.400;2022-07-29T01:54:06;5.70;;;2.63;;
68947;SDS011;55996;49.546;7.400;2022-07-29T01:56:37;4.17;;;2.70;;
68947;SDS011;55996;49.546;7.400;2022-07-29T01:59:05;3.50;;;2.73;;
68947;SDS011;55996;49.546;7.400;2022-07-29T02:01:33;3.73;;;2.77;;
68947;SDS011;55996;49.546;7.400;2022-07-29T02:04:01;5.97;;;3.10;;
68947;SDS011;55996;49.546;7.400;2022-07-29T02:06:29;3.00;;;2.73;;
68947;SDS011;55996;49.546;7.400;2022-07-29T02:08:56;3.73;;;2.80;;
68947;SDS011;55996;49.546;7.400;2022-07-29T02:11:24;3.57;;;2.60;;
68947;SDS011;55996;49.546;7.400;2022-07-29T02:13:51;3.70;;;2.80;;
68947;SDS011;55996;49.546;7.400;2022-07-29T02:16:20;4.13;;;2.80;;
68947;SDS011;55996;49.546;7.400;2022-07-29T02:18:47;3.13;;;2.67;;
68947;SDS011;55996;49.546;7.400;2022-07-29T02:21:19;3.87;;;2.80;;
68947;SDS011;55996;49.546;7.400;2022-07-29T02:23:48;3.60;;;2.70;;
68947;SDS011;55996;49.546;7.400;2022-07-29T02:26:14;2.70;;;2.50;;
68947;SDS011;55996;49.546;7.400;2022-07-29T02:28:43;3.57;;;2.30;;
68947;SDS011;55996;49.546;7.400;2022-07-29T02:31:09;3.63;;;2.60;;
68947;SDS011;55996;49.546;7.400;2022-07-29T02:33:36;5.40;;;3.00;;
68947;SDS011;55996;49.546;7.400;2022-07-29T02:36:03;3.07;;;2.73;;
68947;SDS011;55996;49.546;7.400;2022-07-29T02:38:29;3.90;;;2.63;;
68947;SDS011;55996;49.546;7.400;2022-07-29T02:42:01;3.20;;;2.90;;
68947;SDS011;55996;49.546;7.400;2022-07-29T02:44:20;3.90;;;3.07;;
68947;SDS011;55996;49.546;7.400;2022-07-29T02:46:52;4.47;;;3.07;;
68947;SDS011;55996;49.546;7.400;2022-07-29T02:52:04;4.87;;;2.73;;
68947;SDS011;55996;49.546;7.400;2022-07-29T02:54:47;3.70;;;2.60;;
68947;SDS011;55996;49.546;7.400;2022-07-29T02:59:54;5.30;;;2.90;;
68947;SDS011;55996;49.546;7.400;2022-07-29T03:02:23;6.77;;;3.00;;
68947;SDS011;55996;49.546;7.400;2022-07-29T03:04:52;3.17;;;2.83;;
68947;SDS011;55996;49.546;7.400;2022-07-29T03:07:20;4.53;;;2.90;;
68947;SDS011;55996;49.546;7.400;2022-07-29T03:09:46;3.43;;;3.00;;
68947;SDS011;55996;49.546;7.400;2022-07-29T03:12:12;3.90;;;2.90;;
68947;SDS011;55996;49.546;7.400;2022-07-29T03:14:39;4.03;;;3.00;;
68947;SDS011;55996;49.546;7.400;2022-07-29T03:17:05;5.47;;;3.07;;
68947;SDS011;55996;49.546;7.400;2022-07-29T03:19:30;3.33;;;3.03;;
68947;SDS011;55996;49.546;7.400;2022-07-29T03:21:57;3.90;;;2.73;;
68947;SDS011;55996;49.546;7.400;2022-07-29T03:24:33;5.07;;;2.70;;
68947;SDS011;55996;49.546;7.400;2022-07-29T03:27:01;5.67;;;2.93;;
68947;SDS011;55996;49.546;7.400;2022-07-29T03:29:28;3.73;;;3.00;;
68947;SDS011;55996;49.546;7.400;2022-07-29T03:31:54;3.17;;;2.73;;
68947;SDS011;55996;49.546;7.400;2022-07-29T03:34:21;3.57;;;2.70;;
68947;SDS011;55996;49.546;7.400;2022-07-29T03:36:46;2.57;;;2.37;;
68947;SDS011;55996;49.546;7.400;2022-07-29T03:39:14;2.97;;;2.70;;
68947;SDS011;55996;49.546;7.400;2022-07-29T03:41:44;4.13;;;2.93;;
68947;SDS011;55996;49.546;7.400;2022-07-29T03:44:12;3.93;;;2.87;;
68947;SDS011;55996;49.546;7.400;2022-07-29T03:46:40;3.50;;;2.90;;
68947;SDS011;55996;49.546;7.400;2022-07-29T03:49:08;6.13;;;2.83;;
68947;SDS011;55996;49.546;7.400;2022-07-29T03:51:36;2.87;;;2.57;;
68947;SDS011;55996;49.546;7.400;2022-07-29T03:54:02;3.53;;;2.77;;
68947;SDS011;55996;49.546;7.400;2022-07-29T03:56:29;4.03;;;2.90;;
68947;SDS011;55996;49.546;7.400;2022-07-29T03:58:56;2.90;;;2.70;;
68947;SDS011;55996;49.546;7.400;2022-07-29T04:01:23;3.63;;;3.10;;
68947;SDS011;55996;49.546;7.400;2022-07-29T04:03:51;3.20;;;2.80;;
68947;SDS011;55996;49.546;7.400;2022-07-29T04:06:16;3.57;;;2.93;;
68947;SDS011;55996;49.546;7.400;2022-07-29T04:08:42;4.73;;;2.90;;
68947;SDS011;55996;49.546;7.400;2022-07-29T04:11:07;3.63;;;2.90;;
68947;SDS011;55996;49.546;7.400;2022-07-29T04:13:33;3.70;;;2.80;;
68947;SDS011;55996;49.546;7.400;2022-07-29T04:15:58;3.20;;;2.90;;
68947;SDS011;55996;49.546;7.400;2022-07-29T04:18:24;2.97;;;2.53;;
68947;SDS011;55996;49.546;7.400;2022-07-29T04:20:50;4.33;;;3.03;;
68947;SDS011;55996;49.546;7.400;2022-07-29T04:23:16;4.63;;;2.83;;
68947;SDS011;55996;49.546;7.400;2022-07-29T04:25:41;4.00;;;2.90;;
68947;SDS011;55996;49.546;7.400;2022-07-29T04:28:07;3.37;;;2.77;;
68947;SDS011;55996;49.546;7.400;2022-07-29T04:30:34;3.63;;;2.60;;
68947;SDS011;55996;49.546;7.400;2022-07-29T04:33:01;3.43;;;2.70;;
68947;SDS011;55996;49.546;7.400;2022-07-29T04:35:28;3.17;;;2.87;;
68947;SDS011;55996;49.546;7.400;2022-07-29T04:37:54;3.43;;;2.83;;
68947;SDS011;55996;49.546;7.400;2022-07-29T04:40:20;3.23;;;3.00;;
68947;SDS011;55996;49.546;7.400;2022-07-29T04:42:45;4.13;;;2.80;;
68947;SDS011;55996;49.546;7.400;2022-07-29T04:45:11;3.20;;;2.90;;
68947;SDS011;55996;49.546;7.400;2022-07-29T04:47:36;3.33;;;2.77;;
68947;SDS011;55996;49.546;7.400;2022-07-29T04:50:02;6.50;;;3.23;;
68947;SDS011;55996;49.546;7.400;2022-07-29T04:52:28;2.97;;;2.70;;
68947;SDS011;55996;49.546;7.400;2022-07-29T04:54:53;5.57;;;3.10;;
68947;SDS011;55996;49.546;7.400;2022-07-29T04:57:19;4.30;;;2.90;;
68947;SDS011;55996;49.546;7.400;2022-07-29T04:59:44;6.00;;;2.70;;
68947;SDS011;55996;49.546;7.400;2022-07-29T05:02:10;3.67;;;2.57;;
68947;SDS011;55996;49.546;7.400;2022-07-29T05:04:35;3.33;;;2.87;;
68947;SDS011;55996;49.546;7.400;2022-07-29T05:07:00;5.13;;;2.70;;
68947;SDS011;55996;49.546;7.400;2022-07-29T05:09:26;2.87;;;2.67;;
68947;SDS011;55996;49.546;7.400;2022-07-29T05:11:51;3.27;;;2.80;;
68947;SDS011;55996;49.546;7.400;2022-07-29T05:14:17;5.43;;;3.10;;
68947;SDS011;55996;49.546;7.400;2022-07-29T05:16:42;3.83;;;2.67;;
68947;SDS011;55996;49.546;7.400;2022-07-29T05:19:08;2.93;;;2.50;;
68947;SDS011;55996;49.546;7.400;2022-07-29T05:21:34;7.23;;;3.50;;
68947;SDS011;55996;49.546;7.400;2022-07-29T05:23:59;4.30;;;2.80;;
68947;SDS011;55996;49.546;7.400;2022-07-29T05:26:25;3.03;;;2.73;;
68947;SDS011;55996;49.546;7.400;2022-07-29T05:28:50;3.10;;;2.80;;
68947;SDS011;55996;49.546;7.400;2022-07-29T05:31:16;5.20;;;2.90;;
68947;SDS011;55996;49.546;7.400;2022-07-29T05:33:41;3.33;;;3.03;;
68947;SDS011;55996;49.546;7.400;2022-07-29T05:36:07;3.50;;;2.70;;
68947;SDS011;55996;49.546;7.400;2022-07-29T05:38:33;2.80;;;2.60;;
68947;SDS011;55996;49.546;7.400;2022-07-29T05:40:59;3.20;;;2.90;;
68947;SDS011;55996;49.546;7.400;2022-07-29T05:43:25;2.70;;;2.50;;
68947;SDS011;55996;49.546;7.400;2022-07-29T05:45:54;3.57;;;2.53;;
68947;SDS011;55996;49.546;7.400;2022-07-29T05:48:19;3.17;;;2.50;;
68947;SDS011;55996;49.546;7.400;2022-07-29T05:50:45;5.23;;;2.60;;
68947;SDS011;55996;49.546;7.400;2022-07-29T05:53:11;4.13;;;2.70;;
68947;SDS011;55996;49.546;7.400;2022-07-29T05:55:36;3.87;;;2.40;;
68947;SDS011;55996;49.546;7.400;2022-07-29T05:58:01;2.37;;;2.17;;
68947;SDS011;55996;49.546;7.400;2022-07-29T06:00:27;3.90;;;2.37;;
68947;SDS011;55996;49.546;7.400;2022-07-29T06:02:52;5.03;;;2.23;;
68947;SDS011;55996;49.546;7.400;2022-07-29T06:05:18;4.03;;;2.10;;
68947;SDS011;55996;49.546;7.400;2022-07-29T06:07:43;3.47;;;2.25;;
68947;SDS011;55996;49.546;7.400;2022-07-29T06:10:09;5.00;;;2.13;;
68947;SDS011;55996;49.546;7.400;2022-07-29T06:12:35;2.85;;;2.15;;
68947;SDS011;55996;49.546;7.400;2022-07-29T06:15:00;2.90;;;2.10;;
68947;SDS011;55996;49.546;7.400;2022-07-29T06:17:26;4.05;;;1.75;;
68947;SDS011;55996;49.546;7.400;2022-07-29T06:19:51;2.60;;;2.10;;
68947;SDS011;55996;49.546;7.400;2022-07-29T06:22:17;3.67;;;1.95;;
68947;SDS011;55996;49.546;7.400;2022-07-29T06:24:42;2.72;;;2.10;;
68947;SDS011;55996;49.546;7.400;2022-07-29T06:27:09;5.15;;;2.22;;
68947;SDS011;55996;49.546;7.400;2022-07-29T06:29:36;3.80;;;1.98;;
68947;SDS011;55996;49.546;7.400;2022-07-29T06:32:01;4.75;;;2.10;;
68947;SDS011;55996;49.546;7.400;2022-07-29T06:34:27;3.97;;;2.10;;
68947;SDS011;55996;49.546;7.400;2022-07-29T06:36:53;2.85;;;1.90;;
68947;SDS011;55996;49.546;7.400;2022-07-29T06:39:18;3.38;;;1.83;;
68947;SDS011;55996;49.546;7.400;2022-07-29T06:41:46;5.43;;;2.03;;
68947;SDS011;55996;49.546;7.400;2022-07-29T06:44:13;2.95;;;2.20;;
68947;SDS011;55996;49.546;7.400;2022-07-29T06:46:39;3.03;;;2.08;;
68947;SDS011;55996;49.546;7.400;2022-07-29T06:49:04;2.95;;;2.10;;
68947;SDS011;55996;49.546;7.400;2022-07-29T06:51:30;3.00;;;2.20;;
68947;SDS011;55996;49.546;7.400;2022-07-29T06:53:56;2.42;;;2.00;;
68947;SDS011;55996;49.546;7.400;2022-07-29T06:56:22;2.97;;;2.10;;
68947;SDS011;55996;49.546;7.400;2022-07-29T06:58:48;4.10;;;2.10;;
68947;SDS011;55996;49.546;7.400;2022-07-29T07:01:13;4.55;;;2.28;;
68947;SDS011;55996;49.546;7.400;2022-07-29T07:03:39;7.60;;;2.33;;
68947;SDS011;55996;49.546;7.400;2022-07-29T07:06:04;3.60;;;2.13;;
68947;SDS011;55996;49.546;7.400;2022-07-29T07:08:29;2.85;;;1.95;;
68947;SDS011;55996;49.546;7.400;2022-07-29T07:10:55;3.80;;;2.25;;
68947;SDS011;55996;49.546;7.400;2022-07-29T07:13:21;2.53;;;2.03;;
68947;SDS011;55996;49.546;7.400;2022-07-29T07:15:47;4.15;;;2.40;;
68947;SDS011;55996;49.546;7.400;2022-07-29T07:18:13;5.50;;;2.50;;
68947;SDS011;55996;49.546;7.400;2022-07-29T07:20:39;5.10;;;2.20;;
68947;SDS011;55996;49.546;7.400;2022-07-29T07:23:05;4.85;;;2.30;;
68947;SDS011;55996;49.546;7.400;2022-07-29T07:25:31;3.67;;;2.20;;
68947;SDS011;55996;49.546;7.400;2022-07-29T07:27:57;4.10;;;2.42;;
68947;SDS011;55996;49.546;7.400;2022-07-29T07:30:22;4.22;;;1.98;;
68947;SDS011;55996;49.546;7.400;2022-07-29T07:32:48;3.45;;;1.98;;
68947;SDS011;55996;49.546;7.400;2022-07-29T07:35:13;5.15;;;2.20;;
68947;SDS011;55996;49.546;7.400;2022-07-29T07:37:39;5.53;;;2.40;;
68947;SDS011;55996;49.546;7.400;2022-07-29T07:40:09;5.82;;;2.47;;
68947;SDS011;55996;49.546;7.400;2022-07-29T07:42:36;3.58;;;2.25;;
68947;SDS011;55996;49.546;7.400;2022-07-29T07:45:03;6.75;;;2.30;;
68947;SDS011;55996;49.546;7.400;2022-07-29T07:47:29;3.15;;;2.28;;
68947;SDS011;55996;49.546;7.400;2022-07-29T07:49:55;3.70;;;1.90;;
68947;SDS011;55996;49.546;7.400;2022-07-29T07:52:21;3.85;;;2.42;;
68947;SDS011;55996;49.546;7.400;2022-07-29T07:54:47;2.13;;;1.92;;
68947;SDS011;55996;49.546;7.400;2022-07-29T07:57:14;2.50;;;2.20;;
68947;SDS011;55996;49.546;7.400;2022-07-29T07:59:39;3.30;;;2.20;;
68947;SDS011;55996;49.546;7.400;2022-07-29T08:02:05;6.38;;;2.60;;
68947;SDS011;55996;49.546;7.400;2022-07-29T08:04:31;3.65;;;2.50;;
68947;SDS011;55996;49.546;7.400;2022-07-29T08:06:57;5.95;;;2.55;;
68947;SDS011;55996;49.546;7.400;2022-07-29T08:09:24;8.70;;;2.60;;
68947;SDS011;55996;49.546;7.400;2022-07-29T08:11:51;2.60;;;2.08;;
68947;SDS011;55996;49.546;7.400;2022-07-29T08:14:16;6.25;;;2.30;;
68947;SDS011;55996;49.546;7.400;2022-07-29T08:16:42;3.55;;;2.30;;
68947;SDS011;55996;49.546;7.400;2022-07-29T08:19:08;8.77;;;2.78;;
68947;SDS011;55996;49.546;7.400;2022-07-29T08:21:34;3.30;;;2.42;;
68947;SDS011;55996;49.546;7.400;2022-07-29T08:24:00;3.10;;;2.25;;
68947;SDS011;55996;49.546;7.400;2022-07-29T08:26:44;2.95;;;2.05;;
68947;SDS011;55996;49.546;7.400;2022-07-29T08:29:09;5.40;;;2.40;;
68947;SDS011;55996;49.546;7.400;2022-07-29T08:31:35;2.25;;;2.05;;
68947;SDS011;55996;49.546;7.400;2022-07-29T08:34:02;5.75;;;2.63;;
68947;SDS011;55996;49.546;7.400;2022-07-29T08:36:29;2.78;;;2.20;;
68947;SDS011;55996;49.546;7.400;2022-07-29T08:38:54;3.13;;;2.28;;
68947;SDS011;55996;49.546;7.400;2022-07-29T08:41:21;2.67;;;2.42;;
68947;SDS011;55996;49.546;7.400;2022-07-29T08:43:47;4.90;;;2.38;;
68947;SDS011;55996;49.546;7.400;2022-07-29T08:46:14;2.50;;;2.30;;
68947;SDS011;55996;49.546;7.400;2022-07-29T08:48:41;5.72;;;2.80;;
68947;SDS011;55996;49.546;7.400;2022-07-29T08:51:07;3.97;;;2.40;;
68947;SDS011;55996;49.546;7.400;2022-07-29T08:53:33;3.40;;;2.40;;
68947;SDS011;55996;49.546;7.400;2022-07-29T08:55:59;4.28;;;2.60;;
68947;SDS011;55996;49.546;7.400;2022-07-29T08:58:25;3.45;;;2.63;;
68947;SDS011;55996;49.546;7.400;2022-07-29T09:00:53;5.15;;;2.45;;
68947;SDS011;55996;49.546;7.400;2022-07-29T09:03:20;4.55;;;2.47;;
68947;SDS011;55996;49.546;7.400;2022-07-29T09:05:49;3.92;;;2.40;;
68947;SDS011;55996;49.546;7.400;2022-07-29T09:08:16;2.15;;;1.92;;
68947;SDS011;55996;49.546;7.400;2022-07-29T09:10:43;3.22;;;2.50;;
68947;SDS011;55996;49.546;7.400;2022-07-29T09:13:09;4.22;;;2.05;;
68947;SDS011;55996;49.546;7.400;2022-07-29T09:15:35;4.68;;;2.22;;
68947;SDS011;55996;49.546;7.400;2022-07-29T09:18:00;7.72;;;2.40;;
68947;SDS011;55996;49.546;7.400;2022-07-29T09:20:27;6.95;;;2.55;;
68947;SDS011;55996;49.546;7.400;2022-07-29T09:23:12;5.20;;;2.42;;
68947;SDS011;55996;49.546;7.400;2022-07-29T09:25:39;6.22;;;2.15;;
68947;SDS011;55996;49.546;7.400;2022-07-29T09:28:13;4.90;;;2.50;;
68947;SDS011;55996;49.546;7.400;2022-07-29T09:30:57;4.10;;;2.40;;
68947;SDS011;55996;49.546;7.400;2022-07-29T09:33:23;7.72;;;2.60;;
68947;SDS011;55996;49.546;7.400;2022-07-29T09:35:59;3.65;;;2.58;;
68947;SDS011;55996;49.546;7.400;2022-07-29T09:38:28;5.00;;;2.65;;
68947;SDS011;55996;49.546;7.400;2022-07-29T09:40:57;5.85;;;2.67;;
68947;SDS011;55996;49.546;7.400;2022-07-29T09:43:25;4.25;;;2.67;;
68947;SDS011;55996;49.546;7.400;2022-07-29T09:45:50;5.50;;;2.88;;
68947;SDS011;55996;49.546;7.400;2022-07-29T09:48:16;4.85;;;2.53;;
68947;SDS011;55996;49.546;7.400;2022-07-29T09:50:45;3.92;;;2.40;;
68947;SDS011;55996;49.546;7.400;2022-07-29T09:53:29;6.32;;;2.90;;
68947;SDS011;55996;49.546;7.400;2022-07-29T09:55:58;3.35;;;2.53;;
68947;SDS011;55996;49.546;7.400;2022-07-29T09:58:24;4.88;;;2.83;;
68947;SDS011;55996;49.546;7.400;2022-07-29T10:00:52;3.70;;;2.60;;
68947;SDS011;55996;49.546;7.400;2022-07-29T10:03:18;3.75;;;2.28;;
68947;SDS011;55996;49.546;7.400;2022-07-29T10:05:44;3.45;;;2.20;;
68947;SDS011;55996;49.546;7.400;2022-07-29T10:08:11;5.22;;;2.47;;
68947;SDS011;55996;49.546;7.400;2022-07-29T10:10:41;6.00;;;5.47;;
68947;SDS011;55996;49.546;7.400;2022-07-29T10:13:11;6.28;;;3.85;;
68947;SDS011;55996;49.546;7.400;2022-07-29T10:15:44;6.78;;;2.60;;
68947;SDS011;55996;49.546;7.400;2022-07-29T10:18:11;4.50;;;2.80;;
68947;SDS011;55996;49.546;7.400;2022-07-29T10:20:39;3.47;;;2.38;;
68947;SDS011;55996;49.546;7.400;2022-07-29T10:23:05;3.35;;;2.75;;
68947;SDS011;55996;49.546;7.400;2022-07-29T10:25:31;4.18;;;2.50;;
68947;SDS011;55996;49.546;7.400;2022-07-29T10:43:36;7.07;;;2.45;;
68947;SDS011;55996;49.546;7.400;2022-07-29T10:46:06;5.72;;;2.65;;
68947;SDS011;55996;49.546;7.400;2022-07-29T10:48:32;2.63;;;2.13;;
68947;SDS011;55996;49.546;7.400;2022-07-29T10:50:59;4.72;;;2.47;;
68947;SDS011;55996;49.546;7.400;2022-07-29T10:56:26;6.25;;;2.40;;
68947;SDS011;55996;49.546;7.400;2022-07-29T11:01:52;4.93;;;2.40;;
68947;SDS011;55996;49.546;7.400;2022-07-29T11:07:09;3.13;;;2.30;;
68947;SDS011;55996;49.546;7.400;2022-07-29T11:09:35;3.25;;;2.30;;
68947;SDS011;55996;49.546;7.400;2022-07-29T11:12:01;2.63;;;1.95;;
68947;SDS011;55996;49.546;7.400;2022-07-29T11:17:16;3.20;;;1.98;;
68947;SDS011;55996;49.546;7.400;2022-07-29T11:19:42;2.00;;;1.85;;
68947;SDS011;55996;49.546;7.400;2022-07-29T11:22:09;4.03;;;2.10;;
68947;SDS011;55996;49.546;7.400;2022-07-29T11:24:35;3.90;;;2.08;;
68947;SDS011;55996;49.546;7.400;2022-07-29T11:27:12;2.45;;;1.88;;
68947;SDS011;55996;49.546;7.400;2022-07-29T11:29:47;2.63;;;2.30;;
68947;SDS011;55996;49.546;7.400;2022-07-29T11:32:17;3.05;;;2.00;;
68947;SDS011;55996;49.546;7.400;2022-07-29T11:34:45;5.65;;;2.20;;
68947;SDS011;55996;49.546;7.400;2022-07-29T11:39:41;5.45;;;2.40;;
68947;SDS011;55996;49.546;7.400;2022-07-29T11:47:39;3.88;;;2.20;;
68947;SDS011;55996;49.546;7.400;2022-07-29T11:50:07;5.07;;;2.20;;
68947;SDS011;55996;49.546;7.400;2022-07-29T11:52:35;2.35;;;1.90;;
68947;SDS011;55996;49.546;7.400;2022-07-29T11:55:08;3.85;;;1.85;;
68947;SDS011;55996;49.546;7.400;2022-07-29T11:57:35;3.83;;;2.15;;
68947;SDS011;55996;49.546;7.400;2022-07-29T12:00:02;2.17;;;1.70;;
68947;SDS011;55996;49.546;7.400;2022-07-29T12:02:39;4.35;;;2.13;;
68947;SDS011;55996;49.546;7.400;2022-07-29T12:05:07;2.22;;;2.03;;
68947;SDS011;55996;49.546;7.400;2022-07-29T12:07:33;3.60;;;2.13;;
68947;SDS011;55996;49.546;7.400;2022-07-29T12:09:59;2.80;;;2.30;;
68947;SDS011;55996;49.546;7.400;2022-07-29T12:12:26;4.88;;;2.20;;
68947;SDS011;55996;49.546;7.400;2022-07-29T12:14:51;3.75;;;2.30;;
68947;SDS011;55996;49.546;7.400;2022-07-29T12:17:33;3.33;;;2.20;;
68947;SDS011;55996;49.546;7.400;2022-07-29T12:20:00;4.03;;;2.00;;
68947;SDS011;55996;49.546;7.400;2022-07-29T12:22:35;2.80;;;1.88;;
68947;SDS011;55996;49.546;7.400;2022-07-29T12:25:03;5.70;;;2.05;;
68947;SDS011;55996;49.546;7.400;2022-07-29T12:27:33;3.83;;;2.00;;
68947;SDS011;55996;49.546;7.400;2022-07-29T12:30:03;3.47;;;1.92;;
68947;SDS011;55996;49.546;7.400;2022-07-29T12:32:38;2.15;;;1.95;;
68947;SDS011;55996;49.546;7.400;2022-07-29T12:35:06;5.55;;;2.25;;
68947;SDS011;55996;49.546;7.400;2022-07-29T12:37:37;2.10;;;1.80;;
68947;SDS011;55996;49.546;7.400;2022-07-29T12:40:05;2.38;;;2.17;;
68947;SDS011;55996;49.546;7.400;2022-07-29T12:42:31;3.63;;;2.20;;
68947;SDS011;55996;49.546;7.400;2022-07-29T12:44:57;3.65;;;2.10;;
68947;SDS011;55996;49.546;7.400;2022-07-29T12:47:23;3.20;;;2.03;;
68947;SDS011;55996;49.546;7.400;2022-07-29T12:49:49;3.97;;;1.80;;
68947;SDS011;55996;49.546;7.400;2022-07-29T12:52:29;7.50;;;2.30;;
68947;SDS011;55996;49.546;7.400;2022-07-29T12:54:56;1.80;;;1.70;;
68947;SDS011;55996;49.546;7.400;2022-07-29T12:57:22;2.40;;;1.80;;
68947;SDS011;55996;49.546;7.400;2022-07-29T13:00:03;4.00;;;2.20;;
68947;SDS011;55996;49.546;7.400;2022-07-29T13:02:29;5.28;;;2.00;;
68947;SDS011;55996;49.546;7.400;2022-07-29T13:04:56;2.92;;;2.10;;
68947;SDS011;55996;49.546;7.400;2022-07-29T13:07:29;2.00;;;1.80;;
68947;SDS011;55996;49.546;7.400;2022-07-29T13:15:38;3.03;;;1.80;;
68947;SDS011;55996;49.546;7.400;2022-07-29T13:18:26;4.63;;;1.70;;
68947;SDS011;55996;49.546;7.400;2022-07-29T13:20:52;2.95;;;1.70;;
68947;SDS011;55996;49.546;7.400;2022-07-29T13:23:18;6.82;;;2.13;;
68947;SDS011;55996;49.546;7.400;2022-07-29T13:25:44;2.58;;;1.77;;
68947;SDS011;55996;49.546;7.400;2022-07-29T13:28:09;4.03;;;1.60;;
68947;SDS011;55996;49.546;7.400;2022-07-29T13:30:36;2.83;;;1.77;;
68947;SDS011;55996;49.546;7.400;2022-07-29T13:33:02;3.00;;;1.95;;
68947;SDS011;55996;49.546;7.400;2022-07-29T13:35:28;2.33;;;1.92;;
68947;SDS011;55996;49.546;7.400;2022-07-29T13:37:55;4.63;;;1.80;;
68947;SDS011;55996;49.546;7.400;2022-07-29T13:40:20;2.58;;;1.60;;
68947;SDS011;55996;49.546;7.400;2022-07-29T13:42:46;3.25;;;1.70;;
68947;SDS011;55996;49.546;7.400;2022-07-29T13:45:12;2.38;;;1.80;;
68947;SDS011;55996;49.546;7.400;2022-07-29T13:47:38;2.95;;;1.70;;
68947;SDS011;55996;49.546;7.400;2022-07-29T13:50:05;5.55;;;1.73;;
68947;SDS011;55996;49.546;7.400;2022-07-29T13:52:32;2.75;;;1.80;;
68947;SDS011;55996;49.546;7.400;2022-07-29T13:54:58;5.05;;;1.83;;
68947;SDS011;55996;49.546;7.400;2022-07-29T13:57:24;3.38;;;1.80;;
68947;SDS011;55996;49.546;7.400;2022-07-29T13:59:49;3.72;;;2.00;;
68947;SDS011;55996;49.546;7.400;2022-07-29T14:02:16;3.75;;;2.00;;
68947;SDS011;55996;49.546;7.400;2022-07-29T14:04:41;2.00;;;1.80;;
68947;SDS011;55996;49.546;7.400;2022-07-29T14:07:07;3.38;;;1.60;;
68947;SDS011;55996;49.546;7.400;2022-07-29T14:09:32;4.78;;;1.80;;
68947;SDS011;55996;49.546;7.400;2022-07-29T14:11:58;2.25;;;1.83;;
68947;SDS011;55996;49.546;7.400;2022-07-29T14:14:23;4.80;;;1.63;;
68947;SDS011;55996;49.546;7.400;2022-07-29T14:16:49;2.78;;;1.67;;
68947;SDS011;55996;49.546;7.400;2022-07-29T14:19:14;3.17;;;1.90;;
68947;SDS011;55996;49.546;7.400;2022-07-29T14:21:40;6.18;;;1.83;;
68947;SDS011;55996;49.546;7.400;2022-07-29T14:24:05;3.63;;;1.85;;
68947;SDS011;55996;49.546;7.400;2022-07-29T14:26:31;6.43;;;2.00;;
68947;SDS011;55996;49.546;7.400;2022-07-29T14:28:56;6.95;;;2.15;;
68947;SDS011;55996;49.546;7.400;2022-07-29T14:31:22;2.00;;;1.70;;
68947;SDS011;55996;49.546;7.400;2022-07-29T14:33:48;2.90;;;1.67;;
68947;SDS011;55996;49.546;7.400;2022-07-29T14:36:13;6.97;;;2.35;;
68947;SDS011;55996;49.546;7.400;2022-07-29T14:38:39;3.35;;;2.10;;
68947;SDS011;55996;49.546;7.400;2022-07-29T14:41:05;2.90;;;1.80;;
68947;SDS011;55996;49.546;7.400;2022-07-29T14:43:31;2.30;;;1.90;;
68947;SDS011;55996;49.546;7.400;2022-07-29T14:45:56;2.10;;;1.83;;
68947;SDS011;55996;49.546;7.400;2022-07-29T14:48:22;3.00;;;1.63;;
68947;SDS011;55996;49.546;7.400;2022-07-29T14:50:47;5.10;;;1.90;;
68947;SDS011;55996;49.546;7.400;2022-07-29T14:53:34;2.25;;;1.80;;
68947;SDS011;55996;49.546;7.400;2022-07-29T14:55:59;2.20;;;1.95;;
68947;SDS011;55996;49.546;7.400;2022-07-29T14:58:25;2.42;;;1.90;;
68947;SDS011;55996;49.546;7.400;2022-07-29T15:00:50;2.63;;;1.85;;
68947;SDS011;55996;49.546;7.400;2022-07-29T15:03:16;7.40;;;2.00;;
68947;SDS011;55996;49.546;7.400;2022-07-29T15:05:41;3.75;;;2.00;;
68947;SDS011;55996;49.546;7.400;2022-07-29T15:08:07;2.90;;;1.90;;
68947;SDS011;55996;49.546;7.400;2022-07-29T15:10:33;2.35;;;1.88;;
68947;SDS011;55996;49.546;7.400;2022-07-29T15:12:58;4.43;;;1.85;;
68947;SDS011;55996;49.546;7.400;2022-07-29T15:15:24;5.28;;;2.08;;
68947;SDS011;55996;49.546;7.400;2022-07-29T15:17:50;2.55;;;1.90;;
68947;SDS011;55996;49.546;7.400;2022-07-29T15:20:15;2.55;;;2.05;;
68947;SDS011;55996;49.546;7.400;2022-07-29T15:22:41;3.33;;;1.92;;
68947;SDS011;55996;49.546;7.400;2022-07-29T15:25:07;6.38;;;2.25;;
68947;SDS011;55996;49.546;7.400;2022-07-29T15:27:33;6.22;;;2.00;;
68947;SDS011;55996;49.546;7.400;2022-07-29T15:29:59;3.85;;;2.10;;
68947;SDS011;55996;49.546;7.400;2022-07-29T15:32:25;2.92;;;1.90;;
68947;SDS011;55996;49.546;7.400;2022-07-29T15:34:51;2.80;;;1.92;;
68947;SDS011;55996;49.546;7.400;2022-07-29T15:37:16;4.35;;;2.05;;
68947;SDS011;55996;49.546;7.400;2022-07-29T15:39:42;3.28;;;2.03;;
68947;SDS011;55996;49.546;7.400;2022-07-29T15:42:07;3.28;;;1.98;;
68947;SDS011;55996;49.546;7.400;2022-07-29T15:44:33;2.10;;;1.90;;
68947;SDS011;55996;49.546;7.400;2022-07-29T15:46:58;3.05;;;2.10;;
68947;SDS011;55996;49.546;7.400;2022-07-29T15:49:40;33.28;;;3.38;;
68947;SDS011;55996;49.546;7.400;2022-07-29T15:52:07;2.17;;;1.83;;